sensor_id;sensor_type;location;lat;lon;timestamp;P1;durP1;ratioP1;P2;durP2;ratioP2
14066;SDS011;7108;42.684;23.350;2023-08-06T00:01:48;115.23;;;68.37;;
14066;SDS011;7108;42.684;23.350;2023-08-06T00:04:13;120.87;;;70.37;;
14066;SDS011;7108;42.684;23.350;2023-08-06T00:06:39;144.53;;;74.07;;
14066;SDS011;7108;42.684;23.350;2023-08-06T00:09:04;140.30;;;73.67;;
14066;SDS011;7108;42.684;23.350;2023-08-06T00:11:30;129.87;;;71.03;;
14066;SDS011;7108;42.684;23.350;2023-08-06T00:13:55;135.97;;;71.80;;
14066;SDS011;7108;42.684;23.350;2023-08-06T00:16:21;119.03;;;70.70;;
14066;SDS011;7108;42.684;23.350;2023-08-06T00:18:46;120.10;;;70.97;;
14066;SDS011;7108;42.684;23.350;2023-08-06T00:21:12;131.40;;;71.20;;
14066;SDS011;7108;42.684;23.350;2023-08-06T00:23:38;134.43;;;72.60;;
14066;SDS011;7108;42.684;23.350;2023-08-06T00:26:03;151.00;;;70.70;;
14066;SDS011;7108;42.684;23.350;2023-08-06T00:28:29;127.03;;;70.97;;
14066;SDS011;7108;42.684;23.350;2023-08-06T00:30:54;134.93;;;69.90;;
14066;SDS011;7108;42.684;23.350;2023-08-06T00:33:21;117.90;;;66.97;;
14066;SDS011;7108;42.684;23.350;2023-08-06T00:35:47;112.23;;;68.73;;
14066;SDS011;7108;42.684;23.350;2023-08-06T00:38:12;125.90;;;68.87;;
14066;SDS011;7108;42.684;23.350;2023-08-06T00:40:38;133.07;;;70.47;;
14066;SDS011;7108;42.684;23.350;2023-08-06T00:43:03;155.13;;;75.07;;
14066;SDS011;7108;42.684;23.350;2023-08-06T00:45:29;118.73;;;70.20;;
14066;SDS011;7108;42.684;23.350;2023-08-06T00:47:55;141.67;;;69.43;;
14066;SDS011;7108;42.684;23.350;2023-08-06T00:50:21;120.53;;;70.07;;
14066;SDS011;7108;42.684;23.350;2023-08-06T00:52:48;127.27;;;69.13;;
14066;SDS011;7108;42.684;23.350;2023-08-06T00:55:14;126.13;;;69.67;;
14066;SDS011;7108;42.684;23.350;2023-08-06T00:57:40;127.00;;;70.17;;
14066;SDS011;7108;42.684;23.350;2023-08-06T01:00:06;138.63;;;71.63;;
14066;SDS011;7108;42.684;23.350;2023-08-06T01:02:32;130.00;;;72.57;;
14066;SDS011;7108;42.684;23.350;2023-08-06T01:04:58;135.03;;;72.97;;
14066;SDS011;7108;42.684;23.350;2023-08-06T01:15:58;138.30;;;72.07;;
14066;SDS011;7108;42.684;23.350;2023-08-06T01:18:25;124.07;;;72.23;;
14066;SDS011;7108;42.684;23.350;2023-08-06T01:20:51;122.43;;;71.90;;
14066;SDS011;7108;42.684;23.350;2023-08-06T01:23:17;128.37;;;73.10;;
14066;SDS011;7108;42.684;23.350;2023-08-06T01:25:46;115.13;;;73.77;;
14066;SDS011;7108;42.684;23.350;2023-08-06T01:28:29;120.80;;;72.80;;
14066;SDS011;7108;42.684;23.350;2023-08-06T01:30:58;142.80;;;73.67;;
14066;SDS011;7108;42.684;23.350;2023-08-06T01:33:27;109.17;;;67.80;;
14066;SDS011;7108;42.684;23.350;2023-08-06T01:35:55;135.37;;;70.53;;
14066;SDS011;7108;42.684;23.350;2023-08-06T01:38:22;115.97;;;71.33;;
14066;SDS011;7108;42.684;23.350;2023-08-06T01:40:49;115.43;;;69.63;;
14066;SDS011;7108;42.684;23.350;2023-08-06T01:43:15;131.27;;;70.27;;
14066;SDS011;7108;42.684;23.350;2023-08-06T01:45:40;119.50;;;68.90;;
14066;SDS011;7108;42.684;23.350;2023-08-06T01:48:06;147.73;;;71.50;;
14066;SDS011;7108;42.684;23.350;2023-08-06T01:50:31;124.57;;;70.43;;
14066;SDS011;7108;42.684;23.350;2023-08-06T01:52:56;138.27;;;72.47;;
14066;SDS011;7108;42.684;23.350;2023-08-06T01:55:22;117.00;;;69.57;;
14066;SDS011;7108;42.684;23.350;2023-08-06T01:57:47;131.60;;;70.47;;
14066;SDS011;7108;42.684;23.350;2023-08-06T02:00:13;123.73;;;69.67;;
14066;SDS011;7108;42.684;23.350;2023-08-06T02:02:38;136.80;;;73.23;;
14066;SDS011;7108;42.684;23.350;2023-08-06T02:05:05;118.27;;;70.27;;
14066;SDS011;7108;42.684;23.350;2023-08-06T02:07:31;117.80;;;69.80;;
14066;SDS011;7108;42.684;23.350;2023-08-06T02:09:56;137.57;;;73.03;;
14066;SDS011;7108;42.684;23.350;2023-08-06T02:12:22;127.37;;;70.00;;
14066;SDS011;7108;42.684;23.350;2023-08-06T02:14:47;126.83;;;71.17;;
14066;SDS011;7108;42.684;23.350;2023-08-06T02:17:13;127.70;;;72.20;;
14066;SDS011;7108;42.684;23.350;2023-08-06T02:19:38;132.43;;;74.03;;
14066;SDS011;7108;42.684;23.350;2023-08-06T02:22:03;135.03;;;73.17;;
14066;SDS011;7108;42.684;23.350;2023-08-06T02:24:29;118.27;;;70.53;;
14066;SDS011;7108;42.684;23.350;2023-08-06T02:26:55;134.57;;;70.03;;
14066;SDS011;7108;42.684;23.350;2023-08-06T02:29:21;131.33;;;72.20;;
14066;SDS011;7108;42.684;23.350;2023-08-06T02:31:46;127.93;;;72.17;;
14066;SDS011;7108;42.684;23.350;2023-08-06T02:34:12;127.07;;;73.07;;
14066;SDS011;7108;42.684;23.350;2023-08-06T02:36:37;136.50;;;74.87;;
14066;SDS011;7108;42.684;23.350;2023-08-06T02:39:03;162.60;;;75.17;;
14066;SDS011;7108;42.684;23.350;2023-08-06T02:41:28;117.37;;;68.97;;
14066;SDS011;7108;42.684;23.350;2023-08-06T02:43:53;147.03;;;74.00;;
14066;SDS011;7108;42.684;23.350;2023-08-06T02:46:19;128.00;;;72.27;;
14066;SDS011;7108;42.684;23.350;2023-08-06T02:48:44;135.23;;;73.60;;
14066;SDS011;7108;42.684;23.350;2023-08-06T02:51:10;124.37;;;70.43;;
14066;SDS011;7108;42.684;23.350;2023-08-06T02:53:35;117.97;;;68.77;;
14066;SDS011;7108;42.684;23.350;2023-08-06T02:56:00;134.23;;;70.17;;
14066;SDS011;7108;42.684;23.350;2023-08-06T02:58:26;137.53;;;71.87;;
14066;SDS011;7108;42.684;23.350;2023-08-06T03:01:04;144.37;;;74.63;;
14066;SDS011;7108;42.684;23.350;2023-08-06T03:03:32;115.60;;;69.17;;
14066;SDS011;7108;42.684;23.350;2023-08-06T03:05:57;139.73;;;72.57;;
14066;SDS011;7108;42.684;23.350;2023-08-06T03:08:23;127.67;;;71.27;;
14066;SDS011;7108;42.684;23.350;2023-08-06T03:10:49;114.87;;;68.33;;
14066;SDS011;7108;42.684;23.350;2023-08-06T03:13:15;139.43;;;72.30;;
14066;SDS011;7108;42.684;23.350;2023-08-06T03:15:57;132.23;;;72.20;;
14066;SDS011;7108;42.684;23.350;2023-08-06T03:18:24;130.43;;;72.63;;
14066;SDS011;7108;42.684;23.350;2023-08-06T03:20:51;131.00;;;72.33;;
14066;SDS011;7108;42.684;23.350;2023-08-06T03:23:17;132.13;;;73.60;;
14066;SDS011;7108;42.684;23.350;2023-08-06T03:25:42;124.13;;;71.23;;
14066;SDS011;7108;42.684;23.350;2023-08-06T03:28:08;133.53;;;72.73;;
14066;SDS011;7108;42.684;23.350;2023-08-06T03:30:34;131.97;;;70.67;;
14066;SDS011;7108;42.684;23.350;2023-08-06T03:32:59;143.10;;;72.83;;
14066;SDS011;7108;42.684;23.350;2023-08-06T03:35:24;128.73;;;71.17;;
14066;SDS011;7108;42.684;23.350;2023-08-06T03:37:50;131.63;;;70.87;;
14066;SDS011;7108;42.684;23.350;2023-08-06T03:40:15;131.40;;;72.47;;
14066;SDS011;7108;42.684;23.350;2023-08-06T03:42:41;122.77;;;71.53;;
14066;SDS011;7108;42.684;23.350;2023-08-06T03:45:06;143.47;;;73.03;;
14066;SDS011;7108;42.684;23.350;2023-08-06T03:47:32;123.27;;;73.23;;
14066;SDS011;7108;42.684;23.350;2023-08-06T03:49:58;152.77;;;75.27;;
14066;SDS011;7108;42.684;23.350;2023-08-06T03:52:23;132.27;;;72.57;;
14066;SDS011;7108;42.684;23.350;2023-08-06T03:54:49;122.53;;;69.37;;
14066;SDS011;7108;42.684;23.350;2023-08-06T03:57:14;133.90;;;72.10;;
14066;SDS011;7108;42.684;23.350;2023-08-06T03:59:39;117.03;;;69.90;;
14066;SDS011;7108;42.684;23.350;2023-08-06T04:02:05;138.37;;;69.83;;
14066;SDS011;7108;42.684;23.350;2023-08-06T04:04:30;123.40;;;69.20;;
14066;SDS011;7108;42.684;23.350;2023-08-06T04:06:56;155.10;;;74.70;;
14066;SDS011;7108;42.684;23.350;2023-08-06T04:09:21;134.67;;;71.73;;
14066;SDS011;7108;42.684;23.350;2023-08-06T04:11:47;127.00;;;69.27;;
14066;SDS011;7108;42.684;23.350;2023-08-06T04:14:12;124.27;;;68.27;;
14066;SDS011;7108;42.684;23.350;2023-08-06T04:16:37;125.17;;;68.87;;
14066;SDS011;7108;42.684;23.350;2023-08-06T04:19:03;138.30;;;68.23;;
14066;SDS011;7108;42.684;23.350;2023-08-06T04:21:28;124.27;;;70.43;;
14066;SDS011;7108;42.684;23.350;2023-08-06T04:23:54;122.27;;;67.60;;
14066;SDS011;7108;42.684;23.350;2023-08-06T04:26:19;127.80;;;70.70;;
14066;SDS011;7108;42.684;23.350;2023-08-06T04:28:45;126.27;;;70.23;;
14066;SDS011;7108;42.684;23.350;2023-08-06T04:31:10;146.60;;;71.50;;
14066;SDS011;7108;42.684;23.350;2023-08-06T04:33:35;114.53;;;68.50;;
14066;SDS011;7108;42.684;23.350;2023-08-06T04:36:01;155.83;;;73.03;;
14066;SDS011;7108;42.684;23.350;2023-08-06T04:38:26;135.40;;;72.27;;
14066;SDS011;7108;42.684;23.350;2023-08-06T04:40:52;130.83;;;70.47;;
14066;SDS011;7108;42.684;23.350;2023-08-06T04:43:18;122.57;;;69.30;;
14066;SDS011;7108;42.684;23.350;2023-08-06T04:45:47;118.40;;;69.03;;
14066;SDS011;7108;42.684;23.350;2023-08-06T04:48:13;124.07;;;68.87;;
14066;SDS011;7108;42.684;23.350;2023-08-06T04:50:42;113.67;;;66.07;;
14066;SDS011;7108;42.684;23.350;2023-08-06T04:53:09;143.53;;;70.33;;
14066;SDS011;7108;42.684;23.350;2023-08-06T04:55:34;126.60;;;69.83;;
14066;SDS011;7108;42.684;23.350;2023-08-06T04:58:00;143.70;;;71.07;;
14066;SDS011;7108;42.684;23.350;2023-08-06T05:00:25;130.90;;;71.00;;
14066;SDS011;7108;42.684;23.350;2023-08-06T05:02:50;130.10;;;71.00;;
14066;SDS011;7108;42.684;23.350;2023-08-06T05:05:16;120.43;;;70.17;;
14066;SDS011;7108;42.684;23.350;2023-08-06T05:07:41;124.77;;;70.33;;
14066;SDS011;7108;42.684;23.350;2023-08-06T05:10:07;116.13;;;69.50;;
14066;SDS011;7108;42.684;23.350;2023-08-06T05:12:32;147.47;;;74.57;;
14066;SDS011;7108;42.684;23.350;2023-08-06T05:14:58;150.20;;;73.93;;
14066;SDS011;7108;42.684;23.350;2023-08-06T05:17:23;128.43;;;70.17;;
14066;SDS011;7108;42.684;23.350;2023-08-06T05:19:49;111.83;;;68.93;;
14066;SDS011;7108;42.684;23.350;2023-08-06T05:22:14;117.73;;;66.77;;
14066;SDS011;7108;42.684;23.350;2023-08-06T05:24:40;116.93;;;68.90;;
14066;SDS011;7108;42.684;23.350;2023-08-06T05:27:05;161.47;;;74.57;;
14066;SDS011;7108;42.684;23.350;2023-08-06T05:29:31;115.97;;;67.73;;
14066;SDS011;7108;42.684;23.350;2023-08-06T05:31:56;145.27;;;73.03;;
14066;SDS011;7108;42.684;23.350;2023-08-06T05:34:21;124.30;;;70.00;;
14066;SDS011;7108;42.684;23.350;2023-08-06T05:36:47;119.37;;;68.27;;
14066;SDS011;7108;42.684;23.350;2023-08-06T05:39:12;130.23;;;71.10;;
14066;SDS011;7108;42.684;23.350;2023-08-06T05:41:38;137.20;;;70.97;;
14066;SDS011;7108;42.684;23.350;2023-08-06T05:44:03;145.67;;;76.23;;
14066;SDS011;7108;42.684;23.350;2023-08-06T05:46:29;140.07;;;74.47;;
14066;SDS011;7108;42.684;23.350;2023-08-06T05:48:54;140.60;;;73.47;;
14066;SDS011;7108;42.684;23.350;2023-08-06T05:51:19;126.60;;;70.37;;
14066;SDS011;7108;42.684;23.350;2023-08-06T05:53:45;125.60;;;69.87;;
14066;SDS011;7108;42.684;23.350;2023-08-06T05:56:12;152.97;;;72.47;;
14066;SDS011;7108;42.684;23.350;2023-08-06T05:58:37;143.50;;;73.13;;
14066;SDS011;7108;42.684;23.350;2023-08-06T06:01:03;156.90;;;69.97;;
14066;SDS011;7108;42.684;23.350;2023-08-06T06:03:28;122.13;;;66.13;;
14066;SDS011;7108;42.684;23.350;2023-08-06T06:05:54;126.13;;;69.07;;
14066;SDS011;7108;42.684;23.350;2023-08-06T06:08:19;129.67;;;71.30;;
14066;SDS011;7108;42.684;23.350;2023-08-06T06:10:44;125.60;;;70.07;;
14066;SDS011;7108;42.684;23.350;2023-08-06T06:13:10;159.37;;;73.07;;
14066;SDS011;7108;42.684;23.350;2023-08-06T06:15:35;139.87;;;74.30;;
14066;SDS011;7108;42.684;23.350;2023-08-06T06:18:01;151.93;;;72.07;;
14066;SDS011;7108;42.684;23.350;2023-08-06T06:20:26;126.40;;;68.10;;
14066;SDS011;7108;42.684;23.350;2023-08-06T06:22:51;116.40;;;66.97;;
14066;SDS011;7108;42.684;23.350;2023-08-06T06:25:17;129.27;;;68.73;;
14066;SDS011;7108;42.684;23.350;2023-08-06T06:27:43;120.07;;;67.47;;
14066;SDS011;7108;42.684;23.350;2023-08-06T06:30:08;161.67;;;73.47;;
14066;SDS011;7108;42.684;23.350;2023-08-06T06:32:34;147.87;;;72.13;;
14066;SDS011;7108;42.684;23.350;2023-08-06T06:35:00;159.07;;;71.43;;
14066;SDS011;7108;42.684;23.350;2023-08-06T06:37:25;121.17;;;67.53;;
14066;SDS011;7108;42.684;23.350;2023-08-06T06:39:50;125.00;;;67.33;;
14066;SDS011;7108;42.684;23.350;2023-08-06T06:42:16;116.60;;;67.20;;
14066;SDS011;7108;42.684;23.350;2023-08-06T06:44:41;152.07;;;74.67;;
14066;SDS011;7108;42.684;23.350;2023-08-06T06:47:07;157.23;;;72.60;;
14066;SDS011;7108;42.684;23.350;2023-08-06T06:49:32;130.47;;;69.73;;
14066;SDS011;7108;42.684;23.350;2023-08-06T06:51:58;143.80;;;72.70;;
14066;SDS011;7108;42.684;23.350;2023-08-06T06:54:23;128.13;;;71.67;;
14066;SDS011;7108;42.684;23.350;2023-08-06T06:56:48;127.50;;;71.90;;
14066;SDS011;7108;42.684;23.350;2023-08-06T06:59:14;141.73;;;72.23;;
14066;SDS011;7108;42.684;23.350;2023-08-06T07:01:39;132.20;;;70.17;;
14066;SDS011;7108;42.684;23.350;2023-08-06T07:04:05;159.80;;;72.10;;
14066;SDS011;7108;42.684;23.350;2023-08-06T07:06:30;132.20;;;70.27;;
14066;SDS011;7108;42.684;23.350;2023-08-06T07:08:56;123.43;;;70.10;;
14066;SDS011;7108;42.684;23.350;2023-08-06T07:11:22;134.67;;;69.97;;
14066;SDS011;7108;42.684;23.350;2023-08-06T07:13:49;126.13;;;68.13;;
14066;SDS011;7108;42.684;23.350;2023-08-06T07:16:20;125.03;;;67.13;;
14066;SDS011;7108;42.684;23.350;2023-08-06T07:18:46;135.13;;;69.57;;
14066;SDS011;7108;42.684;23.350;2023-08-06T07:21:11;159.40;;;70.47;;
14066;SDS011;7108;42.684;23.350;2023-08-06T07:23:36;142.10;;;69.77;;
14066;SDS011;7108;42.684;23.350;2023-08-06T07:26:02;145.03;;;68.70;;
14066;SDS011;7108;42.684;23.350;2023-08-06T07:28:27;132.50;;;69.33;;
14066;SDS011;7108;42.684;23.350;2023-08-06T07:30:53;126.30;;;69.17;;
14066;SDS011;7108;42.684;23.350;2023-08-06T07:33:18;116.07;;;65.03;;
14066;SDS011;7108;42.684;23.350;2023-08-06T07:35:44;142.67;;;70.40;;
14066;SDS011;7108;42.684;23.350;2023-08-06T07:38:09;153.87;;;69.37;;
14066;SDS011;7108;42.684;23.350;2023-08-06T07:40:35;155.63;;;71.13;;
14066;SDS011;7108;42.684;23.350;2023-08-06T07:43:02;157.40;;;70.47;;
14066;SDS011;7108;42.684;23.350;2023-08-06T07:45:27;119.90;;;66.00;;
14066;SDS011;7108;42.684;23.350;2023-08-06T07:47:53;129.90;;;67.07;;
14066;SDS011;7108;42.684;23.350;2023-08-06T07:50:18;117.97;;;64.50;;
14066;SDS011;7108;42.684;23.350;2023-08-06T07:52:44;126.37;;;66.17;;
14066;SDS011;7108;42.684;23.350;2023-08-06T07:55:09;151.33;;;67.23;;
14066;SDS011;7108;42.684;23.350;2023-08-06T07:57:35;133.63;;;66.93;;
14066;SDS011;7108;42.684;23.350;2023-08-06T08:00:01;141.53;;;65.73;;
14066;SDS011;7108;42.684;23.350;2023-08-06T08:02:27;123.30;;;64.17;;
14066;SDS011;7108;42.684;23.350;2023-08-06T08:04:52;132.87;;;66.43;;
14066;SDS011;7108;42.684;23.350;2023-08-06T08:07:18;140.63;;;67.50;;
14066;SDS011;7108;42.684;23.350;2023-08-06T08:09:43;134.17;;;65.83;;
14066;SDS011;7108;42.684;23.350;2023-08-06T08:12:09;155.53;;;67.43;;
14066;SDS011;7108;42.684;23.350;2023-08-06T08:14:34;141.93;;;67.10;;
14066;SDS011;7108;42.684;23.350;2023-08-06T08:17:04;135.87;;;65.13;;
14066;SDS011;7108;42.684;23.350;2023-08-06T08:19:33;132.40;;;64.37;;
14066;SDS011;7108;42.684;23.350;2023-08-06T08:21:58;117.70;;;62.50;;
14066;SDS011;7108;42.684;23.350;2023-08-06T08:24:24;128.97;;;65.57;;
14066;SDS011;7108;42.684;23.350;2023-08-06T08:26:50;138.27;;;67.17;;
14066;SDS011;7108;42.684;23.350;2023-08-06T08:29:16;160.63;;;69.97;;
14066;SDS011;7108;42.684;23.350;2023-08-06T08:31:41;131.23;;;65.97;;
14066;SDS011;7108;42.684;23.350;2023-08-06T08:34:06;148.03;;;66.33;;
14066;SDS011;7108;42.684;23.350;2023-08-06T08:36:32;120.57;;;62.73;;
14066;SDS011;7108;42.684;23.350;2023-08-06T08:38:57;118.97;;;63.33;;
14066;SDS011;7108;42.684;23.350;2023-08-06T08:41:23;117.47;;;63.47;;
14066;SDS011;7108;42.684;23.350;2023-08-06T08:43:50;140.63;;;68.30;;
14066;SDS011;7108;42.684;23.350;2023-08-06T08:46:19;125.63;;;64.90;;
14066;SDS011;7108;42.684;23.350;2023-08-06T08:48:45;121.07;;;63.20;;
14066;SDS011;7108;42.684;23.350;2023-08-06T08:51:11;153.03;;;65.93;;
14066;SDS011;7108;42.684;23.350;2023-08-06T08:53:37;133.00;;;64.57;;
14066;SDS011;7108;42.684;23.350;2023-08-06T08:56:04;116.60;;;62.63;;
14066;SDS011;7108;42.684;23.350;2023-08-06T08:58:30;125.93;;;65.93;;
14066;SDS011;7108;42.684;23.350;2023-08-06T09:00:56;125.40;;;62.20;;
14066;SDS011;7108;42.684;23.350;2023-08-06T09:03:23;125.57;;;62.97;;
14066;SDS011;7108;42.684;23.350;2023-08-06T09:05:49;131.30;;;62.43;;
14066;SDS011;7108;42.684;23.350;2023-08-06T09:08:18;125.80;;;65.27;;
14066;SDS011;7108;42.684;23.350;2023-08-06T09:10:49;142.13;;;66.80;;
14066;SDS011;7108;42.684;23.350;2023-08-06T09:13:18;127.63;;;63.53;;
14066;SDS011;7108;42.684;23.350;2023-08-06T09:15:45;119.47;;;63.63;;
14066;SDS011;7108;42.684;23.350;2023-08-06T09:18:11;154.47;;;67.77;;
14066;SDS011;7108;42.684;23.350;2023-08-06T09:20:37;128.33;;;64.37;;
14066;SDS011;7108;42.684;23.350;2023-08-06T09:23:10;139.43;;;65.77;;
14066;SDS011;7108;42.684;23.350;2023-08-06T09:25:38;121.93;;;64.97;;
14066;SDS011;7108;42.684;23.350;2023-08-06T09:28:06;141.70;;;64.77;;
14066;SDS011;7108;42.684;23.350;2023-08-06T09:30:34;122.33;;;62.50;;
14066;SDS011;7108;42.684;23.350;2023-08-06T09:33:00;140.73;;;64.93;;
14066;SDS011;7108;42.684;23.350;2023-08-06T09:35:30;119.87;;;62.27;;
14066;SDS011;7108;42.684;23.350;2023-08-06T09:38:06;121.57;;;62.53;;
14066;SDS011;7108;42.684;23.350;2023-08-06T09:40:32;122.00;;;64.17;;
14066;SDS011;7108;42.684;23.350;2023-08-06T09:42:58;126.00;;;65.07;;
14066;SDS011;7108;42.684;23.350;2023-08-06T09:45:31;132.20;;;65.37;;
14066;SDS011;7108;42.684;23.350;2023-08-06T09:48:07;133.53;;;68.80;;
14066;SDS011;7108;42.684;23.350;2023-08-06T09:50:35;129.93;;;67.80;;
14066;SDS011;7108;42.684;23.350;2023-08-06T09:53:02;122.37;;;63.80;;
14066;SDS011;7108;42.684;23.350;2023-08-06T09:55:33;119.47;;;63.83;;
14066;SDS011;7108;42.684;23.350;2023-08-06T09:57:59;128.00;;;64.53;;
14066;SDS011;7108;42.684;23.350;2023-08-06T10:00:25;120.60;;;65.23;;
14066;SDS011;7108;42.684;23.350;2023-08-06T10:02:52;133.77;;;66.17;;
14066;SDS011;7108;42.684;23.350;2023-08-06T10:05:21;131.70;;;65.37;;
14066;SDS011;7108;42.684;23.350;2023-08-06T10:07:47;117.73;;;63.77;;
14066;SDS011;7108;42.684;23.350;2023-08-06T10:10:14;154.00;;;68.20;;
14066;SDS011;7108;42.684;23.350;2023-08-06T10:12:41;126.30;;;64.97;;
14066;SDS011;7108;42.684;23.350;2023-08-06T10:15:12;124.37;;;65.17;;
14066;SDS011;7108;42.684;23.350;2023-08-06T10:17:40;114.97;;;61.73;;
14066;SDS011;7108;42.684;23.350;2023-08-06T10:20:09;137.53;;;64.93;;
14066;SDS011;7108;42.684;23.350;2023-08-06T10:22:35;135.13;;;65.70;;
14066;SDS011;7108;42.684;23.350;2023-08-06T10:25:01;115.27;;;63.13;;
14066;SDS011;7108;42.684;23.350;2023-08-06T10:27:40;122.03;;;63.03;;
14066;SDS011;7108;42.684;23.350;2023-08-06T10:32:51;130.43;;;64.57;;
14066;SDS011;7108;42.684;23.350;2023-08-06T10:38:09;136.63;;;66.70;;
14066;SDS011;7108;42.684;23.350;2023-08-06T10:40:35;126.90;;;63.87;;
14066;SDS011;7108;42.684;23.350;2023-08-06T10:43:02;118.67;;;64.30;;
14066;SDS011;7108;42.684;23.350;2023-08-06T10:45:29;130.97;;;66.50;;
14066;SDS011;7108;42.684;23.350;2023-08-06T10:47:58;136.97;;;66.03;;
14066;SDS011;7108;42.684;23.350;2023-08-06T10:50:24;134.03;;;66.10;;
14066;SDS011;7108;42.684;23.350;2023-08-06T10:52:50;135.10;;;67.43;;
14066;SDS011;7108;42.684;23.350;2023-08-06T10:55:23;149.20;;;68.27;;
14066;SDS011;7108;42.684;23.350;2023-08-06T10:57:49;148.27;;;68.90;;
14066;SDS011;7108;42.684;23.350;2023-08-06T11:00:15;150.07;;;68.20;;
14066;SDS011;7108;42.684;23.350;2023-08-06T11:02:41;130.27;;;66.57;;
14066;SDS011;7108;42.684;23.350;2023-08-06T11:07:33;130.93;;;67.23;;
14066;SDS011;7108;42.684;23.350;2023-08-06T11:10:06;153.90;;;69.83;;
14066;SDS011;7108;42.684;23.350;2023-08-06T11:12:33;141.47;;;68.60;;
14066;SDS011;7108;42.684;23.350;2023-08-06T11:14:59;153.30;;;71.50;;
14066;SDS011;7108;42.684;23.350;2023-08-06T11:17:25;150.03;;;72.67;;
14066;SDS011;7108;42.684;23.350;2023-08-06T11:19:53;129.10;;;70.73;;
14066;SDS011;7108;42.684;23.350;2023-08-06T11:22:20;140.10;;;71.20;;
14066;SDS011;7108;42.684;23.350;2023-08-06T11:24:45;142.87;;;69.70;;
14066;SDS011;7108;42.684;23.350;2023-08-06T11:27:14;154.03;;;69.63;;
14066;SDS011;7108;42.684;23.350;2023-08-06T11:29:41;130.67;;;68.17;;
14066;SDS011;7108;42.684;23.350;2023-08-06T11:32:10;156.23;;;70.07;;
14066;SDS011;7108;42.684;23.350;2023-08-06T11:34:36;135.17;;;67.57;;
14066;SDS011;7108;42.684;23.350;2023-08-06T11:37:03;170.60;;;71.70;;
14066;SDS011;7108;42.684;23.350;2023-08-06T11:39:32;178.67;;;73.80;;
14066;SDS011;7108;42.684;23.350;2023-08-06T11:41:59;179.67;;;75.27;;
14066;SDS011;7108;42.684;23.350;2023-08-06T11:44:29;166.23;;;72.67;;
14066;SDS011;7108;42.684;23.350;2023-08-06T11:46:56;177.73;;;74.63;;
14066;SDS011;7108;42.684;23.350;2023-08-06T11:49:37;158.60;;;74.10;;
14066;SDS011;7108;42.684;23.350;2023-08-06T11:52:19;143.13;;;67.93;;
14066;SDS011;7108;42.684;23.350;2023-08-06T11:57:47;158.60;;;69.83;;
14066;SDS011;7108;42.684;23.350;2023-08-06T12:00:13;152.63;;;69.97;;
14066;SDS011;7108;42.684;23.350;2023-08-06T12:02:39;177.97;;;73.03;;
14066;SDS011;7108;42.684;23.350;2023-08-06T12:05:10;200.53;;;75.53;;
14066;SDS011;7108;42.684;23.350;2023-08-06T12:07:37;181.90;;;73.40;;
14066;SDS011;7108;42.684;23.350;2023-08-06T12:10:08;182.03;;;73.07;;
14066;SDS011;7108;42.684;23.350;2023-08-06T12:12:34;164.70;;;72.53;;
14066;SDS011;7108;42.684;23.350;2023-08-06T12:15:01;153.83;;;71.70;;
14066;SDS011;7108;42.684;23.350;2023-08-06T12:17:27;181.23;;;73.03;;
14066;SDS011;7108;42.684;23.350;2023-08-06T12:19:52;165.00;;;71.07;;
14066;SDS011;7108;42.684;23.350;2023-08-06T12:22:18;194.73;;;74.00;;
14066;SDS011;7108;42.684;23.350;2023-08-06T12:24:43;148.53;;;69.17;;
14066;SDS011;7108;42.684;23.350;2023-08-06T12:27:11;186.10;;;72.53;;
14066;SDS011;7108;42.684;23.350;2023-08-06T12:29:47;179.07;;;74.60;;
14066;SDS011;7108;42.684;23.350;2023-08-06T12:32:13;154.97;;;71.07;;
14066;SDS011;7108;42.684;23.350;2023-08-06T12:34:39;184.90;;;75.83;;
14066;SDS011;7108;42.684;23.350;2023-08-06T12:37:08;202.70;;;77.53;;
14066;SDS011;7108;42.684;23.350;2023-08-06T12:39:34;177.33;;;73.43;;
14066;SDS011;7108;42.684;23.350;2023-08-06T12:42:00;175.33;;;73.77;;
14066;SDS011;7108;42.684;23.350;2023-08-06T12:44:27;168.97;;;74.13;;
14066;SDS011;7108;42.684;23.350;2023-08-06T12:46:52;162.40;;;70.47;;
14066;SDS011;7108;42.684;23.350;2023-08-06T12:49:18;177.33;;;73.57;;
14066;SDS011;7108;42.684;23.350;2023-08-06T12:51:46;164.70;;;73.50;;
14066;SDS011;7108;42.684;23.350;2023-08-06T12:54:19;186.87;;;73.77;;
14066;SDS011;7108;42.684;23.350;2023-08-06T12:56:46;143.30;;;67.17;;
14066;SDS011;7108;42.684;23.350;2023-08-06T12:59:13;156.43;;;69.20;;
14066;SDS011;7108;42.684;23.350;2023-08-06T13:01:40;146.07;;;68.07;;
14066;SDS011;7108;42.684;23.350;2023-08-06T13:04:06;152.80;;;69.20;;
14066;SDS011;7108;42.684;23.350;2023-08-06T13:06:32;155.23;;;71.13;;
14066;SDS011;7108;42.684;23.350;2023-08-06T13:09:08;143.70;;;67.13;;
14066;SDS011;7108;42.684;23.350;2023-08-06T13:11:36;130.37;;;67.63;;
14066;SDS011;7108;42.684;23.350;2023-08-06T13:16:33;130.83;;;67.47;;
14066;SDS011;7108;42.684;23.350;2023-08-06T13:18:59;132.47;;;67.90;;
14066;SDS011;7108;42.684;23.350;2023-08-06T13:21:31;133.80;;;69.80;;
14066;SDS011;7108;42.684;23.350;2023-08-06T13:24:16;161.00;;;70.57;;
14066;SDS011;7108;42.684;23.350;2023-08-06T13:26:42;145.90;;;70.43;;
14066;SDS011;7108;42.684;23.350;2023-08-06T13:29:07;180.10;;;73.83;;
14066;SDS011;7108;42.684;23.350;2023-08-06T13:31:33;126.17;;;67.47;;
14066;SDS011;7108;42.684;23.350;2023-08-06T13:33:58;147.83;;;73.80;;
14066;SDS011;7108;42.684;23.350;2023-08-06T13:36:24;131.07;;;69.43;;
14066;SDS011;7108;42.684;23.350;2023-08-06T13:38:51;148.73;;;72.03;;
14066;SDS011;7108;42.684;23.350;2023-08-06T13:41:16;175.40;;;74.97;;
14066;SDS011;7108;42.684;23.350;2023-08-06T13:43:42;147.10;;;73.67;;
14066;SDS011;7108;42.684;23.350;2023-08-06T13:46:09;143.23;;;73.63;;
14066;SDS011;7108;42.684;23.350;2023-08-06T13:48:38;142.47;;;70.67;;
14066;SDS011;7108;42.684;23.350;2023-08-06T13:51:04;158.77;;;71.77;;
14066;SDS011;7108;42.684;23.350;2023-08-06T13:53:29;152.47;;;74.80;;
14066;SDS011;7108;42.684;23.350;2023-08-06T13:55:55;180.20;;;73.60;;
14066;SDS011;7108;42.684;23.350;2023-08-06T13:58:22;167.60;;;72.07;;
14066;SDS011;7108;42.684;23.350;2023-08-06T14:00:47;194.67;;;77.77;;
14066;SDS011;7108;42.684;23.350;2023-08-06T14:03:13;189.47;;;76.37;;
14066;SDS011;7108;42.684;23.350;2023-08-06T14:05:38;183.27;;;75.70;;
14066;SDS011;7108;42.684;23.350;2023-08-06T14:08:04;188.27;;;77.50;;
14066;SDS011;7108;42.684;23.350;2023-08-06T14:10:29;177.60;;;75.67;;
14066;SDS011;7108;42.684;23.350;2023-08-06T14:12:55;162.10;;;74.63;;
14066;SDS011;7108;42.684;23.350;2023-08-06T14:15:20;168.77;;;72.80;;
14066;SDS011;7108;42.684;23.350;2023-08-06T14:17:46;174.50;;;75.27;;
14066;SDS011;7108;42.684;23.350;2023-08-06T14:20:12;191.83;;;75.57;;
14066;SDS011;7108;42.684;23.350;2023-08-06T14:22:37;197.17;;;79.17;;
14066;SDS011;7108;42.684;23.350;2023-08-06T14:25:03;171.43;;;75.23;;
14066;SDS011;7108;42.684;23.350;2023-08-06T14:27:29;167.47;;;74.33;;